Time,TemperatureF,DewpointF,PressureIn,WindDirection,WindDirectionDegrees,WindSpeedMPH,WindSpeedGustMPH,Humidity,HourlyPrecipIn,Conditions,Clouds,dailyrainin,SoftwareType,DateUTC
2013-11-18 00:02:00,39.0,28.0,-100.00,West,270,19.0,29.0,63,0.00,,,-99.99,,2013-11-18 06:02:00,
2013-11-18 00:12:00,39.0,28.0,-100.00,West,270,19.0,29.0,63,0.00,,,-99.99,,2013-11-18 06:12:00,
2013-11-18 00:52:00,38.0,27.0,-100.00,West,275,17.0,27.0,66,0.00,,,-99.99,,2013-11-18 06:52:00,
2013-11-18 01:01:00,38.0,27.0,-100.00,West,275,17.0,27.0,66,0.00,,,-99.99,,2013-11-18 07:01:00,
2013-11-18 01:11:00,38.0,27.0,-100.00,West,275,17.0,27.0,66,0.00,,,-99.99,,2013-11-18 07:11:00,
2013-11-18 01:52:00,36.0,27.0,-100.00,West,260,20.0,36.0,67,0.00,,,-99.99,,2013-11-18 07:52:00,
2013-11-18 02:01:00,36.0,27.0,-100.00,West,260,20.0,36.0,67,0.00,,,-99.99,,2013-11-18 08:01:00,
2013-11-18 02:11:00,36.0,27.0,-100.00,West,260,20.0,36.0,67,0.00,,,-99.99,,2013-11-18 08:11:00,
2013-11-18 02:52:00,35.0,24.0,-100.00,West,265,20.0,31.0,64,0.00,,,-99.99,,2013-11-18 08:52:00,
2013-11-18 03:02:00,35.0,24.0,-100.00,West,265,20.0,31.0,64,0.00,,,-99.99,,2013-11-18 09:02:00,
2013-11-18 03:12:00,35.0,24.0,-100.00,West,265,20.0,31.0,64,0.00,,,-99.99,,2013-11-18 09:12:00,
2013-11-18 03:53:00,35.0,23.0,-100.00,West,275,16.0,25.0,63,0.00,,,-99.99,,2013-11-18 09:53:00,
2013-11-18 04:03:00,35.0,23.0,-100.00,West,275,16.0,25.0,63,0.00,,,-99.99,,2013-11-18 10:03:00,
2013-11-18 04:13:00,35.0,23.0,-100.00,West,275,16.0,25.0,63,0.00,,,-99.99,,2013-11-18 10:13:00,
2013-11-18 04:53:00,34.0,21.0,-100.00,West,280,20.0,38.0,58,0.00,,,-99.99,,2013-11-18 10:53:00,
2013-11-18 05:02:00,34.0,21.0,-100.00,West,280,20.0,38.0,58,0.00,,,-99.99,,2013-11-18 11:02:00,
2013-11-18 05:12:00,34.0,21.0,-100.00,West,280,20.0,38.0,58,0.00,,,-99.99,,2013-11-18 11:12:00,
2013-11-18 05:52:00,34.0,22.0,-100.00,WNW,290,16.0,27.0,62,0.00,,,-99.99,,2013-11-18 11:52:00,
2013-11-18 06:02:00,34.0,22.0,-100.00,WNW,290,16.0,27.0,62,0.00,,,-99.99,,2013-11-18 12:02:00,
2013-11-18 06:12:00,34.0,22.0,-100.00,WNW,290,16.0,27.0,62,0.00,,,-99.99,,2013-11-18 12:12:00,
2013-11-18 06:52:00,33.0,21.0,-100.00,WNW,295,13.0,29.0,61,0.00,,,-99.99,,2013-11-18 12:52:00,
2013-11-18 07:01:00,33.0,21.0,-100.00,WNW,295,13.0,29.0,61,0.00,,,-99.99,,2013-11-18 13:01:00,
2013-11-18 07:11:00,33.0,21.0,-100.00,WNW,295,13.0,29.0,61,0.00,,,-99.99,,2013-11-18 13:11:00,
2013-11-18 07:52:00,33.0,21.0,-100.00,West,275,16.0,30.0,60,0.00,,,-99.99,,2013-11-18 13:52:00,
2013-11-18 08:02:00,33.0,21.0,-100.00,West,275,16.0,30.0,60,0.00,,,-99.99,,2013-11-18 14:02:00,
2013-11-18 08:11:00,33.0,21.0,-100.00,West,275,16.0,30.0,60,0.00,,,-99.99,,2013-11-18 14:11:00,
2013-11-18 08:52:00,32.0,21.0,-100.00,NW,305,12.0,37.0,62,0.00,,,-99.99,,2013-11-18 14:52:00,
2013-11-18 09:01:00,32.0,21.0,-100.00,NW,305,12.0,37.0,62,0.00,,,-99.99,,2013-11-18 15:01:00,
2013-11-18 09:11:00,32.0,21.0,-100.00,NW,305,12.0,37.0,62,0.00,,,-99.99,,2013-11-18 15:11:00,
2013-11-18 09:54:00,31.0,17.0,-100.00,NW,305,20.0,32.0,56,0.00,,,-99.99,,2013-11-18 15:54:00,
2013-11-18 10:03:00,31.0,17.0,-100.00,NW,305,20.0,32.0,56,0.00,,,-99.99,,2013-11-18 16:03:00,
2013-11-18 10:13:00,31.0,17.0,-100.00,NW,305,20.0,32.0,56,0.00,,,-99.99,,2013-11-18 16:13:00,
2013-11-18 10:53:00,32.0,18.0,-100.00,WNW,300,13.0,26.0,57,0.00,,,-99.99,,2013-11-18 16:53:00,
2013-11-18 11:02:00,32.0,18.0,-100.00,WNW,300,13.0,26.0,57,0.00,,,-99.99,,2013-11-18 17:02:00,
2013-11-18 11:12:00,32.0,18.0,-100.00,WNW,300,13.0,26.0,57,0.00,,,-99.99,,2013-11-18 17:12:00,
2013-11-18 11:52:00,32.0,18.0,-100.00,West,275,14.0,29.0,56,0.00,,,-99.99,,2013-11-18 17:52:00,
2013-11-18 12:02:00,32.0,18.0,-100.00,West,275,14.0,29.0,56,0.00,,,-99.99,,2013-11-18 18:02:00,
2013-11-18 12:12:00,32.0,18.0,-100.00,West,275,14.0,29.0,56,0.00,,,-99.99,,2013-11-18 18:12:00,
2013-11-18 12:52:00,33.0,16.0,-100.00,WNW,295,16.0,32.0,51,0.00,,,-99.99,,2013-11-18 18:52:00,
2013-11-18 13:01:00,33.0,16.0,-100.00,WNW,295,16.0,32.0,51,0.00,,,-99.99,,2013-11-18 19:01:00,
2013-11-18 13:11:00,33.0,16.0,-100.00,WNW,295,16.0,32.0,51,0.00,,,-99.99,,2013-11-18 19:11:00,
2013-11-18 14:01:00,33.0,16.0,-100.00,WNW,295,17.0,29.0,50,0.00,,,-99.99,,2013-11-18 20:01:00,
2013-11-18 14:11:00,33.0,16.0,-100.00,WNW,295,17.0,29.0,50,0.00,,,-99.99,,2013-11-18 20:11:00,
2013-11-18 14:52:00,33.0,16.0,-100.00,WNW,300,11.0,26.0,50,0.00,,,-99.99,,2013-11-18 20:52:00,
2013-11-18 15:02:00,33.0,16.0,-100.00,WNW,300,11.0,26.0,50,0.00,,,-99.99,,2013-11-18 21:02:00,
2013-11-18 15:11:00,33.0,16.0,-100.00,WNW,300,11.0,26.0,50,0.00,,,-99.99,,2013-11-18 21:11:00,
2013-11-18 15:54:00,33.0,16.0,-100.00,WNW,300,14.0,24.0,50,0.00,,,-99.99,,2013-11-18 21:54:00,
2013-11-18 16:03:00,33.0,16.0,-100.00,WNW,300,14.0,24.0,50,0.00,,,-99.99,,2013-11-18 22:03:00,
2013-11-18 16:13:00,33.0,16.0,-100.00,WNW,300,14.0,24.0,50,0.00,,,-99.99,,2013-11-18 22:13:00,
2013-11-18 16:53:00,32.0,15.0,-100.00,WNW,295,14.0,24.0,51,0.00,,,-99.99,,2013-11-18 22:53:00,
2013-11-18 17:02:00,32.0,15.0,-100.00,WNW,295,14.0,24.0,51,0.00,,,-99.99,,2013-11-18 23:02:00,
2013-11-18 17:12:00,32.0,15.0,-100.00,WNW,295,14.0,24.0,51,0.00,,,-99.99,,2013-11-18 23:12:00,
2013-11-18 17:52:00,31.0,16.0,-100.00,WNW,300,11.0,21.0,54,0.00,,,-99.99,,2013-11-18 23:52:00,
2013-11-18 18:02:00,31.0,16.0,-100.00,WNW,300,11.0,21.0,54,0.00,,,-99.99,,2013-11-19 00:02:00,
2013-11-18 18:11:00,31.0,16.0,-100.00,WNW,300,11.0,21.0,54,0.00,,,-99.99,,2013-11-19 00:11:00,
2013-11-18 18:52:00,29.0,16.0,-100.00,WNW,290,7.0,18.0,57,0.00,,,-99.99,,2013-11-19 00:52:00,
2013-11-18 19:02:00,29.0,16.0,-100.00,WNW,290,7.0,18.0,57,0.00,,,-99.99,,2013-11-19 01:02:00,
2013-11-18 19:11:00,29.0,16.0,-100.00,WNW,290,7.0,18.0,57,0.00,,,-99.99,,2013-11-19 01:11:00,
2013-11-18 19:52:00,29.0,16.0,-100.00,WNW,295,7.0,16.0,58,0.00,,,-99.99,,2013-11-19 01:52:00,
2013-11-18 20:01:00,29.0,16.0,-100.00,WNW,295,7.0,16.0,58,0.00,,,-99.99,,2013-11-19 02:01:00,
2013-11-18 20:12:00,29.0,16.0,-100.00,WNW,295,7.0,16.0,58,0.00,,,-99.99,,2013-11-19 02:12:00,
2013-11-18 20:52:00,28.0,16.0,-100.00,West,265,4.0,7.0,62,0.00,,,-99.99,,2013-11-19 02:52:00,
2013-11-18 21:02:00,28.0,16.0,-100.00,West,265,4.0,7.0,62,0.00,,,-99.99,,2013-11-19 03:02:00,
2013-11-18 21:11:00,28.0,16.0,-100.00,West,265,4.0,7.0,62,0.00,,,-99.99,,2013-11-19 03:11:00,
2013-11-18 21:54:00,26.0,17.0,-100.00,West,275,4.0,6.0,67,0.00,,,-99.99,,2013-11-19 03:54:00,
2013-11-18 22:13:00,26.0,17.0,-100.00,West,275,4.0,6.0,67,0.00,,,-99.99,,2013-11-19 04:13:00,
2013-11-18 22:52:00,25.0,17.0,-100.00,West,260,4.0,6.0,72,0.00,,,-99.99,,2013-11-19 04:52:00,
2013-11-18 23:02:00,25.0,17.0,-100.00,West,260,4.0,6.0,72,0.00,,,-99.99,,2013-11-19 05:02:00,
2013-11-18 23:12:00,25.0,17.0,-100.00,West,260,4.0,6.0,72,0.00,,,-99.99,,2013-11-19 05:12:00,
2013-11-18 23:53:00,24.0,17.0,-100.00,WNW,285,3.0,6.0,75,0.00,,,-99.99,,2013-11-19 05:53:00,